Time;durP1;ratioP1;P1;durP2;ratioP2;P2;SDS_P1;SDS_P2;PMS_P1;PMS_P2;Temp;Humidity;BMP_temperature;BMP_pressure;BME280_temperature;BME280_humidity;BME280_pressure;Samples;Min_cycle;Max_cycle;Signal;HPM_P1;HPM_P2
2023/07/05 04:06:59;;;;;;;11.70;8.13;;;;;;;19.92;93.82;100468.38;5609300;31;74954;-59
2023/07/05 04:10:02;;;;;;;16.77;8.20;;;;;;;19.92;93.82;100468.38;5603493;31;34102;-60
2023/07/05 04:13:04;;;;;;;14.82;7.85;;;;;;;19.47;93.56;100467.31;5589225;31;33551;-60
2023/07/05 04:16:20;;;;;;;14.18;8.75;;;;;;;19.58;94.17;100472.31;5602689;31;33594;-60
2023/07/05 04:19:22;;;;;;;12.52;7.65;;;;;;;19.72;92.99;100475.50;5603178;31;33691;-60
2023/07/05 04:22:25;;;;;;;14.90;8.65;;;;;;;19.83;91.91;100476.63;5602691;31;33497;-60
2023/07/05 04:25:27;;;;;;;13.20;9.07;;;;;;;19.85;90.98;100479.81;5603086;31;34270;-60
2023/07/05 04:28:31;;;;;;;12.68;8.48;;;;;;;19.92;90.65;100481.97;5603197;31;33690;-60
2023/07/05 04:31:33;;;;;;;15.15;8.65;;;;;;;19.94;91.91;100479.72;5602340;31;33250;-61
2023/07/05 04:34:35;;;;;;;12.90;8.48;;;;;;;19.90;94.81;100482.31;5603067;31;33620;-60
2023/07/05 04:37:39;;;;;;;13.85;8.73;;;;;;;19.93;92.96;100489.00;5585843;31;34204;-60
2023/07/05 04:40:42;;;;;;;14.93;9.43;;;;;;;20.06;94.16;100484.34;5563951;32;34052;-60
2023/07/05 04:43:44;;;;;;;15.60;9.55;;;;;;;20.23;91.71;100489.56;5563094;32;33601;-61
2023/07/05 04:46:46;;;;;;;13.32;10.10;;;;;;;20.39;89.95;100490.41;5563509;32;33370;-60
2023/07/05 04:49:48;;;;;;;13.80;9.65;;;;;;;20.34;89.92;100490.66;5577902;32;33641;-60
2023/07/05 04:52:51;;;;;;;13.60;10.50;;;;;;;20.38;89.82;100488.06;5582522;31;34255;-60
2023/07/05 04:55:55;;;;;;;17.67;11.32;;;;;;;20.46;89.65;100489.84;5583088;31;34274;-60
2023/07/05 04:58:58;;;;;;;16.25;11.95;;;;;;;20.57;89.20;100485.53;5582707;31;33861;-61
2023/07/05 05:02:00;;;;;;;16.40;11.88;;;;;;;20.46;90.51;100489.03;5574660;32;34251;-60
2023/07/05 05:05:03;;;;;;;15.35;11.68;;;;;;;20.54;91.43;100486.22;5579424;32;33660;-60
2023/07/05 05:08:05;;;;;;;15.57;11.80;;;;;;;20.62;90.86;100493.44;5582692;31;33661;-61
2023/07/05 05:11:08;;;;;;;16.45;11.32;;;;;;;20.76;90.11;100493.09;5572312;32;33602;-58
2023/07/05 05:14:10;;;;;;;16.83;11.70;;;;;;;20.79;93.69;100497.03;5573674;31;33597;-58
2023/07/05 05:17:13;;;;;;;18.92;11.38;;;;;;;20.85;91.14;100498.37;5574586;32;33680;-58
2023/07/05 05:20:15;;;;;;;17.25;12.27;;;;;;;21.00;91.13;100499.59;5568845;32;33639;-59
2023/07/05 05:23:17;;;;;;;17.33;12.45;;;;;;;21.15;90.05;100492.56;5568891;32;33675;-58
2023/07/05 05:26:20;;;;;;;16.35;11.48;;;;;;;21.42;91.24;100499.94;5569699;32;34397;-58
2023/07/05 05:29:22;;;;;;;13.62;10.13;;;;;;;21.54;86.92;100494.41;5569619;32;33599;-59
2023/07/05 05:32:24;;;;;;;13.52;10.10;;;;;;;21.68;86.86;100495.91;5569065;32;33729;-58
2023/07/05 05:35:27;;;;;;;13.82;10.60;;;;;;;21.88;86.51;100496.78;5569190;32;33953;-58
2023/07/05 05:38:30;;;;;;;15.18;10.82;;;;;;;22.08;85.21;100492.19;5568935;32;33672;-58
2023/07/05 05:41:33;;;;;;;14.20;11.20;;;;;;;22.21;85.17;100489.00;5564866;32;33256;-58
2023/07/05 05:44:35;;;;;;;16.48;10.90;;;;;;;22.37;81.23;100491.69;5568669;32;33365;-58
2023/07/05 05:47:37;;;;;;;15.13;10.63;;;;;;;22.41;81.73;100492.56;5568920;32;34389;-59
2023/07/05 05:50:40;;;;;;;17.50;10.60;;;;;;;22.57;82.90;100483.53;5568640;32;34189;-58
2023/07/05 05:53:42;;;;;;;17.98;12.27;;;;;;;22.78;81.38;100483.16;5567808;32;34394;-58
2023/07/05 05:56:44;;;;;;;15.80;10.73;;;;;;;22.89;78.12;100481.44;5568522;32;33696;-58
2023/07/05 05:59:47;;;;;;;18.30;11.65;;;;;;;22.92;79.11;100484.25;5568223;32;33968;-58
2023/07/05 06:02:52;;;;;;;17.25;10.10;;;;;;;23.00;78.56;100487.16;5567601;32;34504;-58
2023/07/05 06:05:55;;;;;;;15.82;9.18;;;;;;;23.11;78.72;100477.19;5568557;32;33565;-59
2023/07/05 06:08:59;;;;;;;16.73;10.77;;;;;;;23.26;78.69;100470.84;5566298;32;33655;-59
2023/07/05 06:12:02;;;;;;;15.23;9.77;;;;;;;23.35;79.64;100473.34;5563673;32;33597;-58
2023/07/05 06:15:05;;;;;;;15.90;11.35;;;;;;;23.46;78.74;100479.78;5567798;32;33331;-60
2023/07/05 06:18:07;;;;;;;14.52;9.75;;;;;;;23.66;75.55;100475.03;5566611;32;33069;-59
2023/07/05 06:21:11;;;;;;;14.18;10.30;;;;;;;23.68;76.38;100473.53;5564683;32;34664;-60
2023/07/05 06:24:13;;;;;;;15.93;10.57;;;;;;;23.75;73.93;100466.59;5566071;32;33700;-60
2023/07/05 06:27:16;;;;;;;17.17;9.90;;;;;;;23.78;74.36;100461.19;5566132;32;34324;-60
2023/07/05 06:30:19;;;;;;;19.60;9.93;;;;;;;23.85;75.65;100465.97;5566785;32;34452;-61
2023/07/05 06:33:22;;;;;;;14.18;9.25;;;;;;;23.90;75.64;100460.16;5563502;32;33357;-60
2023/07/05 06:36:25;;;;;;;16.48;10.02;;;;;;;24.05;75.43;100463.91;5568088;32;33678;-60
2023/07/05 06:39:27;;;;;;;14.32;9.57;;;;;;;24.16;72.74;100462.09;5567841;32;33229;-61
2023/07/05 06:42:30;;;;;;;15.45;10.85;;;;;;;24.24;73.35;100458.31;5568113;32;33130;-60
2023/07/05 06:45:34;;;;;;;15.48;10.27;;;;;;;24.38;74.04;100455.75;5564997;32;34434;-61
2023/07/05 06:48:37;;;;;;;14.30;11.02;;;;;;;24.52;72.96;100451.66;5568158;32;34417;-60
2023/07/05 06:51:39;;;;;;;15.13;10.43;;;;;;;24.52;71.78;100446.94;5568168;32;34330;-60
2023/07/05 06:54:41;;;;;;;15.20;10.38;;;;;;;24.61;71.91;100458.41;5568516;32;33726;-60
2023/07/05 10:28:46;;;;;;;10.38;7.55;;;;;;;26.56;54.66;100373.66;5560714;32;158847;-62
2023/07/05 10:31:54;;;;;;;10.80;7.18;;;;;;;26.22;57.37;100382.94;5567934;32;33176;-62
2023/07/05 10:34:58;;;;;;;9.68;7.15;;;;;;;26.33;57.02;100382.19;5583030;31;34199;-62
2023/07/05 10:38:00;;;;;;;16.40;7.65;;;;;;;26.35;52.58;100379.81;5567580;32;33496;-62
2023/07/05 10:41:25;;;;;;;10.63;7.20;;;;;;;26.39;56.82;100378.69;5563491;32;33616;-62
2023/07/05 10:44:32;;;;;;;10.13;7.12;;;;;;;26.71;53.29;100384.25;5551502;32;33771;-61
2023/07/05 10:47:35;;;;;;;9.55;7.07;;;;;;;26.70;51.60;100377.19;5570983;32;33687;-61
2023/07/05 10:50:39;;;;;;;9.90;7.28;;;;;;;26.91;51.33;100384.69;5562392;32;33885;-62
2023/07/05 10:53:46;;;;;;;8.95;6.50;;;;;;;26.98;50.82;100372.91;5562759;32;33668;-62
2023/07/05 10:56:49;;;;;;;9.45;6.43;;;;;;;26.96;49.90;100360.75;5563323;32;33912;-62
2023/07/05 11:00:09;;;;;;;9.73;7.10;;;;;;;26.92;47.45;100366.22;5577196;32;34264;-62
2023/07/05 11:03:45;;;;;;;9.18;6.78;;;;;;;26.88;49.74;100362.69;5576063;32;33678;-62
2023/07/05 11:06:50;;;;;;;10.98;7.00;;;;;;;26.90;50.32;100361.12;5562518;32;33611;-62
2023/07/05 11:09:53;;;;;;;10.23;6.75;;;;;;;27.06;50.35;100360.75;5561619;32;34241;-62
2023/07/05 11:12:56;;;;;;;11.30;6.82;;;;;;;27.01;49.24;100352.09;5562957;32;33752;-62
2023/07/05 11:15:59;;;;;;;8.55;6.75;;;;;;;27.07;48.66;100354.06;5560801;32;34322;-62
2023/07/05 11:19:09;;;;;;;9.43;6.72;;;;;;;27.08;50.17;100349.31;5562853;32;33744;-62
2023/07/05 11:22:37;;;;;;;10.52;5.65;;;;;;;27.24;48.78;100337.97;5563216;32;33719;-62
2023/07/05 11:25:52;;;;;;;10.25;6.12;;;;;;;27.24;47.71;100338.75;5551053;32;33733;-62
2023/07/05 11:28:55;;;;;;;9.68;6.43;;;;;;;27.39;48.66;100342.28;5549929;32;34269;-62
2023/07/05 11:32:00;;;;;;;10.43;6.93;;;;;;;27.39;48.52;100342.28;5549880;32;34238;-62
2023/07/05 11:35:03;;;;;;;11.80;6.43;;;;;;;27.37;48.02;100336.38;5549893;32;33652;-62
2023/07/05 11:38:06;;;;;;;11.63;7.15;;;;;;;27.36;46.43;100326.56;5549938;32;34294;-62
2023/07/05 11:41:24;;;;;;;8.80;6.60;;;;;;;27.33;47.19;100325.37;5549811;32;33599;-62
2023/07/05 11:44:29;;;;;;;9.50;6.62;;;;;;;27.31;47.82;100333.22;5541525;32;33212;-62
2023/07/05 11:47:32;;;;;;;9.23;6.25;;;;;;;27.61;47.37;100320.97;5530660;32;33687;-62
2023/07/05 11:50:36;;;;;;;10.43;7.05;;;;;;;27.51;46.24;100314.31;5547138;32;33519;-62
2023/07/05 11:53:39;;;;;;;10.30;6.68;;;;;;;27.56;47.85;100316.66;5549510;32;34164;-62
2023/07/05 11:56:44;;;;;;;10.85;7.45;;;;;;;27.62;49.24;100317.06;5549886;32;33608;-62
2023/07/05 12:00:10;;;;;;;7.97;6.28;;;;;;;27.80;48.19;100306.00;5549867;32;33535;-62
2023/07/05 12:03:21;;;;;;;14.13;6.97;;;;;;;27.83;48.26;100305.97;5549656;32;35216;-63
2023/07/05 12:06:42;;;;;;;9.98;6.45;;;;;;;27.61;49.21;100307.22;5549728;32;33578;-62
2023/07/05 12:09:44;;;;;;;10.40;6.50;;;;;;;27.53;49.75;100302.91;5549328;32;33792;-62
2023/07/05 12:12:47;;;;;;;11.88;7.07;;;;;;;27.52;49.07;100284.84;5549698;32;33862;-62
2023/07/05 12:15:50;;;;;;;11.43;6.90;;;;;;;27.61;47.93;100282.41;5549241;32;33587;-62
2023/07/05 12:18:53;;;;;;;9.82;6.53;;;;;;;27.43;48.08;100289.97;5549711;32;33680;-62
2023/07/05 12:22:05;;;;;;;10.63;6.60;;;;;;;27.43;47.29;100279.75;5549858;32;34254;-62
2023/07/05 12:25:10;;;;;;;9.88;6.57;;;;;;;27.51;47.04;100270.25;5546413;32;33581;-62
2023/07/05 12:28:23;;;;;;;10.37;6.70;;;;;;;27.43;49.56;100256.94;5549579;32;34230;-62
2023/07/05 12:31:27;;;;;;;9.30;6.60;;;;;;;27.61;47.58;100257.63;5548265;32;33740;-62
2023/07/05 12:34:29;;;;;;;10.02;6.45;;;;;;;27.74;47.94;100249.72;5530363;32;33245;-59
2023/07/05 12:37:32;;;;;;;11.10;7.00;;;;;;;27.70;48.61;100260.75;5529165;32;33711;-60
2023/07/05 12:40:40;;;;;;;9.60;7.25;;;;;;;27.83;46.66;100253.66;5530084;32;34394;-60
2023/07/05 12:43:43;;;;;;;9.50;7.15;;;;;;;27.88;46.71;100241.41;5530100;32;34045;-59
2023/07/05 12:46:46;;;;;;;11.00;7.85;;;;;;;27.84;45.82;100241.44;5530234;32;34194;-60
2023/07/05 12:50:04;;;;;;;10.13;7.10;;;;;;;27.87;46.56;100232.38;5529923;32;34242;-60
2023/07/05 12:53:13;;;;;;;9.75;7.35;;;;;;;27.95;45.42;100229.59;5529564;32;33631;-59
2023/07/05 12:56:37;;;;;;;10.32;7.28;;;;;;;27.80;45.36;100215.09;5542073;32;33879;-60
2023/07/05 12:59:41;;;;;;;10.45;6.90;;;;;;;27.84;43.56;100218.62;5537616;32;34312;-59
2023/07/05 13:03:04;;;;;;;10.70;7.12;;;;;;;27.78;45.21;100210.00;5530296;32;34358;-59
2023/07/05 13:06:08;;;;;;;9.90;7.43;;;;;;;27.85;45.40;100203.69;5529903;32;33656;-59
2023/07/05 13:09:10;;;;;;;13.70;7.73;;;;;;;27.64;46.99;100197.03;5530160;32;33597;-59
2023/07/05 13:12:13;;;;;;;11.43;7.65;;;;;;;27.45;48.47;100193.97;5529968;32;34269;-59
2023/07/05 13:15:15;;;;;;;10.45;7.65;;;;;;;27.56;48.93;100190.00;5529990;32;33625;-59
2023/07/05 13:18:27;;;;;;;12.63;7.40;;;;;;;27.53;48.50;100187.28;5530041;32;33668;-59
2023/07/05 13:21:44;;;;;;;9.90;7.30;;;;;;;27.81;50.26;100173.38;5530059;32;34396;-59
2023/07/05 13:24:48;;;;;;;14.80;8.50;;;;;;;27.94;47.14;100181.97;5529473;32;33607;-59
2023/07/05 13:27:53;;;;;;;12.43;8.20;;;;;;;27.81;47.87;100178.09;5529983;32;33298;-59
2023/07/05 13:30:58;;;;;;;11.57;8.37;;;;;;;27.82;48.25;100171.44;5529956;32;33674;-60
2023/07/05 13:34:04;;;;;;;12.48;8.60;;;;;;;27.97;47.61;100170.13;5529933;32;33574;-59
2023/07/05 13:37:14;;;;;;;20.15;8.18;;;;;;;27.97;46.89;100169.34;5529753;32;33922;-60
2023/07/05 13:40:20;;;;;;;12.00;8.02;;;;;;;27.96;47.63;100154.81;5530033;32;34264;-59
2023/07/05 13:43:22;;;;;;;12.52;7.93;;;;;;;28.11;46.71;100149.97;5529616;32;33583;-60
2023/07/05 13:46:26;;;;;;;10.45;8.20;;;;;;;28.09;47.77;100147.62;5529284;32;33681;-60
2023/07/05 13:49:28;;;;;;;10.05;7.93;;;;;;;28.16;48.07;100148.75;5529581;32;34235;-60
2023/07/05 13:52:32;;;;;;;14.93;7.87;;;;;;;28.29;46.71;100145.09;5529492;32;34382;-60
2023/07/05 13:55:34;;;;;;;12.20;8.60;;;;;;;28.31;48.07;100134.47;5529458;32;33587;-60
2023/07/05 13:58:39;;;;;;;11.63;8.10;;;;;;;28.26;47.03;100136.88;5529550;32;33791;-60
2023/07/05 14:01:43;;;;;;;13.18;9.30;;;;;;;28.46;44.78;100129.63;5529501;32;33587;-60
2023/07/05 14:04:45;;;;;;;15.88;8.70;;;;;;;28.38;45.15;100122.59;5529416;32;34278;-60
2023/07/05 14:07:47;;;;;;;11.38;8.93;;;;;;;28.32;46.74;100118.69;5529461;32;33563;-60
2023/07/05 14:10:51;;;;;;;12.05;8.65;;;;;;;28.47;43.81;100122.13;5529387;32;33826;-60
2023/07/05 14:13:55;;;;;;;11.52;8.80;;;;;;;28.29;45.65;100119.50;5529192;32;33731;-59
2023/07/05 14:17:00;;;;;;;12.80;8.20;;;;;;;28.30;46.15;100119.09;5529084;32;33557;-61
2023/07/05 14:20:04;;;;;;;18.02;9.23;;;;;;;28.32;46.74;100110.44;5529411;32;33727;-60
2023/07/05 14:23:14;;;;;;;12.73;8.55;;;;;;;28.28;46.62;100118.75;5529280;32;33778;-60
2023/07/05 14:26:16;;;;;;;14.93;9.40;;;;;;;28.26;46.44;100114.81;5528875;32;33806;-60
2023/07/05 14:29:19;;;;;;;10.80;8.30;;;;;;;28.28;45.75;100106.94;5529085;32;33635;-60
2023/07/05 14:32:21;;;;;;;10.60;8.07;;;;;;;28.30;46.37;100110.03;5528615;32;33594;-59
2023/07/05 14:35:24;;;;;;;11.68;8.75;;;;;;;28.31;48.35;100103.34;5528767;32;33992;-60
2023/07/05 14:38:27;;;;;;;13.88;8.40;;;;;;;28.44;47.35;100098.91;5529082;32;34498;-60
2023/07/05 14:41:33;;;;;;;11.88;8.30;;;;;;;28.43;48.20;100100.09;5528778;32;33712;-60
2023/07/05 14:44:35;;;;;;;15.38;8.48;;;;;;;28.60;47.89;100103.09;5528584;32;34259;-60
2023/07/05 14:47:38;;;;;;;17.62;8.90;;;;;;;28.55;46.32;100094.09;5529108;32;34308;-60
2023/07/05 14:50:42;;;;;;;13.98;8.77;;;;;;;28.49;46.46;100098.47;5528605;32;33702;-60
2023/07/05 14:53:45;;;;;;;14.40;9.60;;;;;;;28.43;47.62;100094.59;5528591;32;33725;-59
2023/07/05 14:56:47;;;;;;;13.82;9.00;;;;;;;28.45;47.31;100103.25;5528651;32;34356;-59
2023/07/05 14:59:50;;;;;;;12.77;8.30;;;;;;;28.46;45.98;100101.28;5530338;32;33701;-60
2023/07/05 15:03:26;;;;;;;13.00;8.45;;;;;;;28.43;44.47;100102.88;5531244;32;34273;-59
2023/07/05 15:06:28;;;;;;;13.23;8.52;;;;;;;28.46;44.64;100102.06;5531294;32;33779;-59
2023/07/05 15:09:31;;;;;;;11.05;8.73;;;;;;;28.43;44.45;100093.81;5531436;32;34193;-59
2023/07/05 15:12:40;;;;;;;13.10;9.13;;;;;;;28.42;45.62;100087.53;5531252;32;33773;-59
2023/07/05 15:15:43;;;;;;;12.15;8.77;;;;;;;28.48;45.52;100093.38;5531060;32;34293;-59
2023/07/05 15:18:46;;;;;;;13.13;8.77;;;;;;;28.60;44.73;100094.81;5531163;32;33795;-59
2023/07/05 15:21:49;;;;;;;10.65;8.00;;;;;;;28.77;43.70;100091.09;5531541;32;34271;-59
2023/07/05 15:24:51;;;;;;;11.73;8.40;;;;;;;28.76;42.71;100086.78;5531115;32;34242;-59
2023/07/05 15:27:53;;;;;;;13.43;8.65;;;;;;;28.52;44.36;100096.88;5531313;32;33604;-59
2023/07/05 15:30:56;;;;;;;12.60;9.18;;;;;;;28.39;45.43;100087.53;5531278;32;34014;-60
2023/07/05 15:33:59;;;;;;;11.30;8.60;;;;;;;28.36;45.44;100091.87;5531170;32;34372;-59
2023/07/05 15:37:01;;;;;;;11.68;8.90;;;;;;;28.32;45.92;100094.66;5531321;32;33607;-59
